Time;durP1;ratioP1;P1;durP2;ratioP2;P2;SDS_P1;SDS_P2;PMS_P1;PMS_P2;Temp;Humidity;BMP_temperature;BMP_pressure;BME280_temperature;BME280_humidity;BME280_pressure;Samples;Min_cycle;Max_cycle;Signal;HPM_P1;HPM_P2
2022/11/27 00:01:20;;;;;;;11.93;7.07;;;;;;;-5.40;76.87;100755.75;4954065;29;20047;-67
2022/11/27 00:03:46;;;;;;;13.07;7.03;;;;;;;-5.44;77.69;100749.97;4936672;29;20146;-66
2022/11/27 00:06:14;;;;;;;16.73;7.05;;;;;;;-5.38;77.54;100751.28;4921023;29;20047;-67
2022/11/27 00:08:41;;;;;;;13.90;7.30;;;;;;;-5.45;77.50;100753.44;4921076;29;20413;-66
2022/11/27 00:11:09;;;;;;;16.30;7.95;;;;;;;-5.54;77.33;100741.97;4936781;29;20087;-67
2022/11/27 00:13:35;;;;;;;16.67;8.40;;;;;;;-5.46;77.77;100756.16;4936727;29;20054;-67
2022/11/27 00:16:02;;;;;;;13.38;7.05;;;;;;;-5.50;77.33;100734.84;4936528;29;20040;-67
2022/11/27 00:18:27;;;;;;;13.15;6.85;;;;;;;-5.39;77.00;100745.28;4953653;29;20051;-67
2022/11/27 00:20:53;;;;;;;9.07;5.70;;;;;;;-5.48;76.72;100751.91;4920631;29;20054;-67
2022/11/27 00:23:18;;;;;;;13.82;7.63;;;;;;;-5.43;77.45;100754.19;4953791;28;20063;-67
2022/11/27 00:25:53;;;;;;;12.95;7.30;;;;;;;-5.41;77.92;100747.16;4920589;29;20043;-66
2022/11/27 00:28:19;;;;;;;12.93;7.43;;;;;;;-5.39;77.70;100747.88;4936597;29;20093;-67
2022/11/27 00:30:45;;;;;;;10.23;5.70;;;;;;;-5.32;76.89;100743.16;4936257;29;20516;-67
2022/11/27 00:33:11;;;;;;;14.38;6.63;;;;;;;-5.31;76.56;100747.38;4920557;29;20079;-66
2022/11/27 00:35:40;;;;;;;13.93;6.93;;;;;;;-5.28;76.42;100758.34;4920924;29;20094;-66
2022/11/27 00:38:06;;;;;;;14.55;7.65;;;;;;;-5.29;76.58;100751.53;4936443;29;20457;-67
2022/11/27 00:40:32;;;;;;;13.13;6.93;;;;;;;-5.20;76.50;100754.44;4936151;29;20070;-67
2022/11/27 00:42:57;;;;;;;15.90;7.28;;;;;;;-5.26;77.01;100759.06;4953401;29;20406;-66
2022/11/27 00:45:23;;;;;;;10.75;5.90;;;;;;;-5.27;76.88;100756.56;4904707;29;20066;-66
2022/11/27 00:47:49;;;;;;;12.70;6.85;;;;;;;-5.32;77.28;100754.31;4936248;29;20043;-67
2022/11/27 00:50:15;;;;;;;13.85;7.40;;;;;;;-5.29;77.26;100748.13;4936081;29;20752;-67
2022/11/27 00:52:41;;;;;;;13.60;7.40;;;;;;;-5.25;76.80;100744.38;4953089;29;20049;-66
2022/11/27 00:55:08;;;;;;;13.00;7.22;;;;;;;-5.18;76.15;100749.97;4936064;29;20542;-67
2022/11/27 00:57:34;;;;;;;13.35;6.75;;;;;;;-5.25;76.28;100742.63;4936233;29;20067;-67
2022/11/27 00:59:59;;;;;;;12.73;6.72;;;;;;;-5.16;76.03;100748.13;4953544;29;20047;-67
2022/11/27 01:02:30;;;;;;;11.90;6.38;;;;;;;-5.31;77.17;100747.38;4937128;29;20075;-67
2022/11/27 01:04:55;;;;;;;11.82;6.68;;;;;;;-5.37;77.20;100747.78;4957351;29;20047;-68
2022/11/27 01:07:21;;;;;;;9.75;6.40;;;;;;;-5.31;77.76;100755.13;4957336;29;20134;-67
2022/11/27 01:09:46;;;;;;;13.63;6.63;;;;;;;-5.16;76.81;100755.88;4924690;29;20047;-67
2022/11/27 01:12:12;;;;;;;15.35;6.70;;;;;;;-5.19;76.80;100749.16;4923903;29;20057;-68
2022/11/27 01:14:38;;;;;;;11.90;5.35;;;;;;;-5.24;77.29;100756.38;4957808;29;20047;-67
2022/11/27 01:17:03;;;;;;;12.45;6.55;;;;;;;-5.23;77.04;100749.47;4939792;29;20035;-66
2022/11/27 01:19:29;;;;;;;11.02;6.30;;;;;;;-5.28;77.50;100748.00;4956800;29;20044;-66
2022/11/27 01:21:55;;;;;;;10.18;5.68;;;;;;;-5.33;77.74;100739.72;4956798;29;20067;-67
2022/11/27 01:24:20;;;;;;;13.18;6.78;;;;;;;-5.30;77.98;100749.03;4923989;29;20078;-67
2022/11/27 01:26:46;;;;;;;11.02;6.35;;;;;;;-5.48;78.00;100743.31;4939567;29;20109;-67
2022/11/27 01:29:11;;;;;;;11.02;5.57;;;;;;;-5.44;78.30;100749.97;4923912;29;20050;-67
2022/11/27 01:31:37;;;;;;;12.02;5.93;;;;;;;-5.40;77.68;100759.16;4939596;29;20058;-67
2022/11/27 01:34:05;;;;;;;12.93;7.03;;;;;;;-5.42;78.09;100755.84;4923919;29;20050;-67
2022/11/27 01:36:32;;;;;;;11.32;6.07;;;;;;;-5.32;78.51;100754.31;4956560;29;20408;-67
2022/11/27 01:38:58;;;;;;;10.38;5.88;;;;;;;-5.35;78.53;100738.19;4923596;29;20464;-66
2022/11/27 01:41:35;;;;;;;11.63;6.07;;;;;;;-5.28;78.21;100745.41;4892095;29;20043;-67
2022/11/27 01:44:24;;;;;;;13.35;6.32;;;;;;;-5.28;78.52;100748.00;4939523;29;20050;-66
2022/11/27 01:46:55;;;;;;;12.48;6.35;;;;;;;-5.19;78.66;100756.91;4930328;29;20500;-67
2022/11/27 01:49:40;;;;;;;14.85;6.13;;;;;;;-5.17;78.15;100754.22;4939561;29;20058;-66
2022/11/27 01:52:10;;;;;;;10.98;6.00;;;;;;;-5.23;78.38;100758.03;4923453;29;20046;-67
2022/11/27 01:54:40;;;;;;;10.98;6.32;;;;;;;-5.14;78.30;100759.19;4923200;29;20047;-67
2022/11/27 01:57:18;;;;;;;14.73;6.57;;;;;;;-5.27;78.66;100736.72;4939414;29;20039;-66
2022/11/27 01:59:45;;;;;;;10.23;5.78;;;;;;;-5.12;78.06;100749.56;4939204;29;20074;-67
2022/11/27 02:02:11;;;;;;;12.90;6.47;;;;;;;-5.21;78.30;100755.34;4923257;29;20051;-66
2022/11/27 02:04:37;;;;;;;10.88;5.85;;;;;;;-5.25;78.93;100757.31;4907550;29;20065;-67
2022/11/27 02:07:02;;;;;;;15.57;7.05;;;;;;;-5.11;78.13;100758.97;4923190;29;20126;-67
2022/11/27 02:09:29;;;;;;;9.25;5.78;;;;;;;-5.16;78.29;100761.03;4923263;29;20047;-67
2022/11/27 02:12:01;;;;;;;10.65;6.13;;;;;;;-5.07;78.63;100760.44;4922906;29;20110;-68
2022/11/27 02:14:49;;;;;;;15.13;7.35;;;;;;;-5.09;78.24;100755.38;4915369;29;20055;-67
2022/11/27 02:17:14;;;;;;;13.95;7.32;;;;;;;-4.99;78.13;100763.31;4938820;29;20315;-68
2022/11/27 02:19:55;;;;;;;12.23;6.50;;;;;;;-4.92;77.82;100761.97;4938522;29;20134;-66
2022/11/27 02:22:24;;;;;;;10.90;6.20;;;;;;;-4.86;78.10;100763.31;4922767;29;20055;-68
2022/11/27 02:25:01;;;;;;;11.18;5.63;;;;;;;-4.87;77.58;100764.25;4955764;29;20567;-67
2022/11/27 02:27:29;;;;;;;10.60;6.68;;;;;;;-4.88;78.12;100765.16;4938412;29;20465;-66
2022/11/27 02:29:58;;;;;;;13.63;7.82;;;;;;;-4.92;78.72;100753.38;4955706;29;20047;-67
2022/11/27 02:32:37;;;;;;;13.18;6.68;;;;;;;-4.84;78.45;100756.28;4938203;29;20542;-66
2022/11/27 02:35:12;;;;;;;14.98;7.35;;;;;;;-4.81;77.29;100756.06;4938457;29;20055;-66
2022/11/27 02:37:46;;;;;;;13.13;6.55;;;;;;;-4.73;77.60;100768.50;4938795;29;20482;-66
2022/11/27 02:40:37;;;;;;;11.10;6.00;;;;;;;-4.70;77.27;100769.09;4955319;29;20053;-67
2022/11/27 02:43:07;;;;;;;11.63;6.20;;;;;;;-4.75;77.19;100766.00;4955506;29;20047;-67
2022/11/27 02:45:40;;;;;;;13.90;6.38;;;;;;;-4.82;77.04;100770.78;4955435;29;20094;-67
2022/11/27 02:48:07;;;;;;;11.50;6.07;;;;;;;-4.82;77.84;100775.13;4938116;29;20059;-67
2022/11/27 02:50:34;;;;;;;12.13;6.00;;;;;;;-4.80;78.21;100776.66;4922356;29;20047;-68
2022/11/27 02:53:03;;;;;;;12.20;5.55;;;;;;;-4.88;77.55;100773.78;4938061;29;20059;-67
2022/11/27 02:55:32;;;;;;;6.78;4.78;;;;;;;-4.85;77.91;100775.34;4922242;29;20039;-68
2022/11/27 02:58:01;;;;;;;9.48;5.93;;;;;;;-4.80;77.86;100771.47;4922102;29;20050;-66
2022/11/27 03:00:28;;;;;;;11.95;6.38;;;;;;;-4.77;78.10;100779.97;4955362;29;20524;-67
2022/11/27 03:02:58;;;;;;;10.25;5.78;;;;;;;-4.78;77.17;100784.31;4922461;29;20047;-67
2022/11/27 03:05:27;;;;;;;10.45;6.15;;;;;;;-4.75;77.44;100780.69;4955421;29;20106;-67
2022/11/27 03:07:58;;;;;;;12.90;7.03;;;;;;;-4.63;76.73;100785.84;4937988;29;20058;-67
2022/11/27 03:11:04;;;;;;;11.55;6.78;;;;;;;-4.67;77.25;100781.84;4922156;29;20047;-67
2022/11/27 03:13:34;;;;;;;11.75;5.80;;;;;;;-4.60;76.75;100787.41;4895680;29;20044;-68
2022/11/27 03:16:34;;;;;;;9.80;5.80;;;;;;;-4.65;76.50;100781.72;4895674;29;20085;-67
2022/11/27 03:19:32;;;;;;;10.65;4.60;;;;;;;-4.73;76.87;100784.84;4926804;29;20052;-67
2022/11/27 03:21:59;;;;;;;11.50;6.15;;;;;;;-4.81;77.09;100784.53;4921700;29;20134;-66
2022/11/27 03:24:27;;;;;;;11.73;5.28;;;;;;;-4.75;77.13;100784.09;4921995;29;20051;-68
2022/11/27 03:26:54;;;;;;;10.85;5.63;;;;;;;-4.77;77.14;100778.19;4936954;29;20417;-67
2022/11/27 03:29:34;;;;;;;11.52;6.70;;;;;;;-4.68;76.53;100781.94;4938019;29;20054;-67
2022/11/27 03:31:59;;;;;;;8.02;4.20;;;;;;;-4.64;76.06;100791.16;4954873;29;20464;-67
2022/11/27 03:34:26;;;;;;;11.63;6.38;;;;;;;-4.56;76.50;100791.44;4955080;29;20163;-66
2022/11/27 03:36:52;;;;;;;12.68;5.93;;;;;;;-4.62;76.28;100784.94;4937540;29;20071;-67
2022/11/27 03:39:19;;;;;;;10.48;5.85;;;;;;;-4.60;76.61;100784.81;4937813;29;20051;-67
2022/11/27 03:41:56;;;;;;;9.05;5.55;;;;;;;-4.61;76.16;100784.00;4954473;29;20266;-67
2022/11/27 03:44:34;;;;;;;6.68;4.57;;;;;;;-4.69;76.09;100777.69;4954977;29;20552;-67
2022/11/27 03:47:14;;;;;;;9.73;5.55;;;;;;;-4.77;77.30;100769.63;4937366;29;20501;-65
2022/11/27 03:50:38;;;;;;;10.23;5.43;;;;;;;-4.74;77.51;100778.00;4954635;29;20050;-67
2022/11/27 03:53:37;;;;;;;12.50;5.88;;;;;;;-4.63;76.46;100780.69;4952067;29;20059;-67
2022/11/27 03:56:12;;;;;;;10.55;5.85;;;;;;;-4.73;76.68;100769.31;4953839;29;20130;-65
2022/11/27 03:58:45;;;;;;;10.93;5.13;;;;;;;-4.69;76.96;100780.28;4954703;29;20051;-65
2022/11/27 04:01:13;;;;;;;10.32;5.00;;;;;;;-4.68;76.84;100779.34;4954446;29;20137;-67
2022/11/27 04:03:38;;;;;;;9.40;5.35;;;;;;;-4.64;76.56;100788.56;4937177;29;20039;-67
2022/11/27 04:06:04;;;;;;;10.18;5.75;;;;;;;-4.67;77.49;100781.84;4954050;29;20046;-66
2022/11/27 04:08:30;;;;;;;11.52;5.97;;;;;;;-4.65;76.83;100776.53;4905134;29;20044;-66
2022/11/27 04:10:55;;;;;;;10.48;6.03;;;;;;;-4.68;76.73;100780.16;4921043;29;20042;-65
2022/11/27 04:13:21;;;;;;;11.45;6.32;;;;;;;-4.65;77.05;100781.72;4936824;29;20109;-66
2022/11/27 04:15:47;;;;;;;11.32;6.28;;;;;;;-4.51;77.22;100778.19;4953757;29;20054;-65
2022/11/27 04:18:12;;;;;;;10.82;6.00;;;;;;;-4.47;76.90;100780.47;4920828;29;20047;-66
2022/11/27 04:20:38;;;;;;;12.07;6.40;;;;;;;-4.51;76.60;100788.53;4953824;29;20035;-67
2022/11/27 04:23:04;;;;;;;12.63;6.10;;;;;;;-4.43;76.03;100783.66;4953796;29;20054;-66
2022/11/27 04:25:29;;;;;;;9.93;5.78;;;;;;;-4.47;76.50;100777.88;4920821;29;20090;-67
2022/11/27 04:27:55;;;;;;;13.27;6.72;;;;;;;-4.46;76.35;100779.53;4953690;29;20501;-73
2022/11/27 04:30:21;;;;;;;10.80;6.20;;;;;;;-4.45;75.88;100782.94;4953725;29;20047;-65
2022/11/27 04:32:47;;;;;;;9.75;5.47;;;;;;;-4.46;75.75;100783.88;4953677;29;20129;-64
2022/11/27 04:35:13;;;;;;;10.77;5.47;;;;;;;-4.49;76.94;100778.91;4953839;29;20046;-67
2022/11/27 04:37:39;;;;;;;11.90;6.00;;;;;;;-4.58;76.72;100767.44;4935468;29;20396;-67
2022/11/27 04:40:05;;;;;;;9.52;5.53;;;;;;;-4.49;76.79;100784.09;4953510;29;20043;-67
2022/11/27 04:42:31;;;;;;;10.70;5.93;;;;;;;-4.42;76.69;100785.31;4936394;29;20086;-68
2022/11/27 04:44:56;;;;;;;11.30;5.63;;;;;;;-4.31;76.55;100784.56;4920332;29;20484;-68
2022/11/27 04:47:22;;;;;;;7.97;5.30;;;;;;;-4.39;76.09;100788.50;4920222;29;20065;-68
2022/11/27 04:49:48;;;;;;;7.93;5.25;;;;;;;-4.39;75.90;100785.09;4920714;29;20074;-67
2022/11/27 04:52:14;;;;;;;10.85;5.40;;;;;;;-4.35;76.16;100784.78;4920435;29;20098;-66
2022/11/27 04:54:40;;;;;;;8.82;4.72;;;;;;;-4.29;76.47;100790.44;4953230;29;20421;-67
2022/11/27 04:57:05;;;;;;;12.00;5.90;;;;;;;-4.38;77.29;100797.94;4936194;29;20058;-67
2022/11/27 04:59:31;;;;;;;10.07;5.18;;;;;;;-4.35;76.45;100789.97;4936398;29;20046;-67
2022/11/27 05:01:57;;;;;;;7.22;4.28;;;;;;;-4.37;76.93;100788.41;4953513;29;20146;-66
2022/11/27 05:04:22;;;;;;;10.02;5.47;;;;;;;-4.39;77.22;100787.69;4936239;29;20093;-68
2022/11/27 05:06:48;;;;;;;10.20;6.03;;;;;;;-4.40;76.70;100786.84;4936000;29;20129;-68
2022/11/27 05:09:16;;;;;;;9.52;4.63;;;;;;;-4.36;77.18;100787.47;4953582;29;20567;-68
2022/11/27 05:11:42;;;;;;;8.35;4.82;;;;;;;-4.29;77.17;100785.28;4936193;29;20039;-67
2022/11/27 05:14:15;;;;;;;12.07;5.50;;;;;;;-4.36;77.40;100787.47;4920338;29;20070;-68
2022/11/27 05:16:49;;;;;;;10.85;5.75;;;;;;;-4.30;77.27;100784.44;4936052;29;20563;-67
2022/11/27 05:19:16;;;;;;;10.43;5.80;;;;;;;-4.43;77.29;100763.78;4953542;29;20083;-66
2022/11/27 05:21:42;;;;;;;10.80;5.10;;;;;;;-4.36;77.52;100788.28;4952822;29;20071;-67
2022/11/27 05:24:08;;;;;;;8.98;5.45;;;;;;;-4.35;77.55;100783.97;4953455;29;20051;-68
2022/11/27 05:26:34;;;;;;;11.65;5.80;;;;;;;-4.35;78.04;100795.13;4953172;29;20055;-68
2022/11/27 05:29:00;;;;;;;7.93;4.97;;;;;;;-4.33;77.89;100795.03;4935991;29;20048;-67
2022/11/27 05:31:25;;;;;;;10.00;5.22;;;;;;;-4.27;78.09;100793.75;4888709;29;20050;-68
2022/11/27 05:33:51;;;;;;;9.35;4.75;;;;;;;-4.34;78.95;100795.97;4953227;29;20145;-67
2022/11/27 05:36:17;;;;;;;15.43;6.18;;;;;;;-4.27;79.36;100793.75;4935935;29;20043;-67
2022/11/27 05:38:43;;;;;;;11.45;5.43;;;;;;;-4.25;79.13;100799.69;4935923;29;20142;-69
2022/11/27 05:41:08;;;;;;;10.48;6.07;;;;;;;-4.22;79.82;100804.63;4920089;29;20098;-68
2022/11/27 05:43:34;;;;;;;9.68;4.95;;;;;;;-4.17;79.89;100799.97;4935996;29;20532;-68
2022/11/27 05:46:05;;;;;;;10.45;6.00;;;;;;;-4.14;80.36;100808.34;4952861;29;20500;-68
2022/11/27 05:48:32;;;;;;;9.70;5.50;;;;;;;-4.07;79.70;100803.56;4953113;28;20048;-69
2022/11/27 05:50:58;;;;;;;12.88;6.30;;;;;;;-4.06;80.88;100801.78;4923728;29;20516;-69
2022/11/27 05:53:24;;;;;;;14.05;6.53;;;;;;;-4.10;80.55;100806.34;4956302;29;20062;-69
2022/11/27 05:55:49;;;;;;;16.13;6.05;;;;;;;-4.07;81.01;100808.72;4907493;29;20133;-68
2022/11/27 05:58:15;;;;;;;14.43;6.18;;;;;;;-4.06;81.51;100810.38;4956402;29;20043;-67
2022/11/27 06:00:41;;;;;;;9.65;5.43;;;;;;;-4.01;81.02;100813.47;4923230;29;20134;-69
2022/11/27 06:03:07;;;;;;;9.80;5.32;;;;;;;-4.09;80.69;100809.78;4923064;29;20051;-68
2022/11/27 06:05:32;;;;;;;12.35;6.65;;;;;;;-4.04;81.88;100810.28;4956150;29;20043;-69
2022/11/27 06:07:58;;;;;;;12.63;6.20;;;;;;;-4.01;82.49;100813.47;4922863;29;20050;-68
2022/11/27 06:10:24;;;;;;;15.48;6.05;;;;;;;-4.02;81.52;100806.66;4923111;29;20075;-71
2022/11/27 06:12:50;;;;;;;12.27;5.97;;;;;;;-3.94;81.67;100814.72;4922895;29;20085;-70
2022/11/27 06:15:15;;;;;;;18.88;7.88;;;;;;;-3.84;82.08;100806.28;4907247;29;20039;-70
2022/11/27 06:17:41;;;;;;;11.50;6.55;;;;;;;-3.83;81.48;100813.94;4956084;29;20106;-70
2022/11/27 06:20:07;;;;;;;13.07;6.43;;;;;;;-3.79;80.97;100809.38;4923153;29;20043;-71
2022/11/27 06:22:33;;;;;;;10.43;5.78;;;;;;;-3.74;80.76;100812.44;4938014;29;20055;-70
2022/11/27 06:24:58;;;;;;;15.20;6.50;;;;;;;-3.80;80.88;100812.88;4955824;29;20394;-69
2022/11/27 06:27:24;;;;;;;10.55;5.90;;;;;;;-3.77;80.87;100826.44;4938369;29;20110;-69
2022/11/27 06:29:50;;;;;;;12.77;7.22;;;;;;;-3.67;81.56;100817.09;4921982;29;20035;-69
2022/11/27 06:32:15;;;;;;;14.48;6.28;;;;;;;-3.66;80.69;100815.31;4922377;29;20047;-67
2022/11/27 06:34:41;;;;;;;14.05;6.90;;;;;;;-3.57;80.81;100817.25;4922942;29;20051;-65
2022/11/27 06:37:07;;;;;;;16.45;6.50;;;;;;;-3.61;81.08;100821.00;4938757;29;20046;-68
2022/11/27 06:39:32;;;;;;;12.00;6.18;;;;;;;-3.64;81.39;100820.41;4938610;29;20138;-68
2022/11/27 06:41:58;;;;;;;13.55;6.65;;;;;;;-3.62;80.88;100821.94;4955613;29;20058;-68
2022/11/27 06:44:23;;;;;;;12.10;6.60;;;;;;;-3.64;81.71;100816.03;4955934;29;20062;-68
2022/11/27 06:46:49;;;;;;;13.40;6.97;;;;;;;-3.66;81.05;100818.72;4906801;29;20071;-69
2022/11/27 06:49:15;;;;;;;12.68;6.88;;;;;;;-3.55;80.78;100824.94;4922541;29;20043;-68
2022/11/27 06:51:40;;;;;;;13.07;6.10;;;;;;;-3.54;80.18;100822.22;4938457;29;20098;-66
2022/11/27 06:54:06;;;;;;;12.00;7.45;;;;;;;-3.44;79.95;100825.81;4938656;29;20043;-70
2022/11/27 06:56:32;;;;;;;12.38;7.18;;;;;;;-3.42;79.82;100825.66;4939118;29;20050;-67
2022/11/27 06:59:00;;;;;;;16.73;6.75;;;;;;;-3.51;79.42;100788.28;4938792;29;20055;-68
2022/11/27 07:01:28;;;;;;;12.48;6.75;;;;;;;-3.34;78.57;100812.16;4956036;28;20751;-71
2022/11/27 07:03:55;;;;;;;15.73;7.85;;;;;;;-3.19;78.17;100824.00;4938101;29;20049;-73
2022/11/27 07:06:23;;;;;;;11.77;6.35;;;;;;;-3.18;78.28;100827.41;4940384;29;20051;-74
2022/11/27 07:08:50;;;;;;;12.18;6.13;;;;;;;-3.24;78.65;100839.06;4924485;29;20050;-68
2022/11/27 07:11:18;;;;;;;12.93;6.25;;;;;;;-3.18;78.15;100828.22;4958102;29;20070;-68
2022/11/27 07:13:45;;;;;;;18.48;8.05;;;;;;;-3.09;78.51;100829.31;4925137;29;20043;-69
2022/11/27 07:16:11;;;;;;;12.45;6.90;;;;;;;-2.97;77.86;100824.06;4925717;29;20047;-69
2022/11/27 07:18:42;;;;;;;12.80;6.07;;;;;;;-3.01;77.30;100827.81;4940453;29;20594;-70
2022/11/27 07:21:09;;;;;;;13.38;7.03;;;;;;;-3.01;77.49;100830.41;4938944;29;20082;-72
2022/11/27 07:23:36;;;;;;;10.60;4.97;;;;;;;-3.07;77.42;100836.03;4921974;29;20161;-72
2022/11/27 07:26:11;;;;;;;10.75;6.80;;;;;;;-2.92;77.87;100831.47;4937367;29;20167;-69
2022/11/27 07:28:37;;;;;;;13.18;6.57;;;;;;;-3.04;77.23;100829.81;4937492;29;20047;-70
2022/11/27 07:31:03;;;;;;;12.30;6.65;;;;;;;-2.97;76.91;100836.22;4937663;29;20051;-69
2022/11/27 07:33:29;;;;;;;11.82;6.00;;;;;;;-2.99;77.28;100825.09;4937306;29;20091;-68
2022/11/27 07:36:00;;;;;;;13.38;7.35;;;;;;;-2.82;77.43;100829.88;4954464;29;20110;-69
2022/11/27 07:38:26;;;;;;;12.68;6.70;;;;;;;-2.71;76.70;100826.44;4921579;29;20059;-71
2022/11/27 07:40:53;;;;;;;10.50;6.43;;;;;;;-2.65;76.41;100828.56;4921304;29;20066;-71
2022/11/27 07:43:19;;;;;;;15.85;7.55;;;;;;;-2.68;76.71;100827.97;4921696;29;20118;-76
2022/11/27 07:45:46;;;;;;;11.05;6.32;;;;;;;-2.56;75.66;100824.44;4920865;29;20043;-75
2022/11/27 07:48:13;;;;;;;15.65;6.75;;;;;;;-2.52;75.98;100833.66;4921763;29;20055;-66
2022/11/27 07:50:39;;;;;;;12.05;7.03;;;;;;;-2.54;75.59;100817.38;4937306;29;20046;-69
2022/11/27 07:53:05;;;;;;;13.20;7.15;;;;;;;-2.42;75.80;100829.41;4937198;29;20464;-67
2022/11/27 07:55:31;;;;;;;9.60;5.45;;;;;;;-2.47;75.79;100823.78;4937353;29;20042;-67
2022/11/27 07:57:57;;;;;;;12.30;6.35;;;;;;;-2.44;75.42;100828.72;4936202;29;20509;-65
2022/11/27 08:00:22;;;;;;;10.25;6.07;;;;;;;-2.54;75.83;100825.16;4954268;29;20035;-67
2022/11/27 08:02:48;;;;;;;13.27;6.68;;;;;;;-2.53;75.80;100825.06;4954161;29;20114;-68
2022/11/27 08:05:14;;;;;;;10.95;7.05;;;;;;;-2.55;76.07;100819.16;4936981;29;20071;-67
2022/11/27 08:07:40;;;;;;;9.48;5.88;;;;;;;-2.49;76.46;100830.84;4954372;29;20047;-67
2022/11/27 08:10:06;;;;;;;11.35;6.32;;;;;;;-2.41;75.87;100819.84;4936774;29;20419;-67
2022/11/27 08:12:33;;;;;;;14.38;7.65;;;;;;;-2.36;76.63;100823.75;4953640;28;20412;-67
2022/11/27 08:14:59;;;;;;;10.32;6.30;;;;;;;-2.39;76.44;100816.19;4937103;29;20441;-67
2022/11/27 08:17:25;;;;;;;11.52;6.10;;;;;;;-2.37;76.19;100818.69;4936725;29;20069;-67
2022/11/27 08:19:54;;;;;;;9.57;5.95;;;;;;;-2.25;76.26;100819.50;4920923;29;20444;-68
2022/11/27 08:22:20;;;;;;;10.15;6.45;;;;;;;-2.24;76.65;100814.16;4921005;29;20067;-67
2022/11/27 08:24:47;;;;;;;13.35;7.60;;;;;;;-2.17;76.18;100810.16;4937139;29;20044;-68
2022/11/27 08:27:13;;;;;;;14.82;7.07;;;;;;;-2.08;76.56;100813.81;4905299;29;20515;-67
2022/11/27 08:29:39;;;;;;;13.20;6.93;;;;;;;-2.00;76.06;100811.44;4905293;29;20097;-67
2022/11/27 08:32:05;;;;;;;11.38;6.47;;;;;;;-1.95;75.71;100816.25;4953706;29;20075;-68
2022/11/27 08:34:32;;;;;;;10.70;6.00;;;;;;;-1.97;76.02;100813.81;4954143;29;20046;-67
2022/11/27 08:36:58;;;;;;;13.10;7.63;;;;;;;-1.93;75.87;100820.41;4953804;29;20455;-68
2022/11/27 08:39:25;;;;;;;12.50;6.75;;;;;;;-2.03;76.04;100823.84;4920568;29;20047;-67
2022/11/27 08:41:52;;;;;;;11.70;6.22;;;;;;;-2.03;76.99;100821.22;4953709;29;20118;-68
2022/11/27 08:44:18;;;;;;;10.35;6.00;;;;;;;-2.07;76.87;100824.06;4920661;29;20110;-68
2022/11/27 08:46:45;;;;;;;12.45;7.07;;;;;;;-2.05;76.66;100821.38;4920994;29;20035;-68
2022/11/27 08:49:10;;;;;;;12.68;6.10;;;;;;;-2.14;76.97;100819.50;4905319;29;20047;-68
2022/11/27 08:51:37;;;;;;;9.88;6.10;;;;;;;-1.98;76.73;100830.31;4953833;29;20097;-66
2022/11/27 08:54:02;;;;;;;13.00;7.15;;;;;;;-1.91;76.41;100823.72;4920840;29;20070;-67
2022/11/27 08:56:30;;;;;;;11.80;8.00;;;;;;;-1.90;76.72;100816.72;4936348;29;20145;-68
2022/11/27 08:58:56;;;;;;;12.90;7.72;;;;;;;-1.88;76.13;100836.47;4936374;29;20078;-67
2022/11/27 09:01:25;;;;;;;13.05;7.25;;;;;;;-1.81;76.33;100820.38;4920461;29;20476;-67
2022/11/27 09:03:51;;;;;;;12.55;7.78;;;;;;;-1.71;75.96;100827.31;4920209;29;20047;-68
2022/11/27 09:06:22;;;;;;;15.02;8.43;;;;;;;-1.66;75.70;100809.56;4936055;29;20147;-67
2022/11/27 09:08:50;;;;;;;14.43;8.23;;;;;;;-1.60;75.41;100808.25;4920011;29;20046;-68
2022/11/27 09:11:17;;;;;;;13.32;8.35;;;;;;;-1.54;75.31;100815.56;4920197;29;20043;-69
2022/11/27 09:13:44;;;;;;;15.32;8.00;;;;;;;-1.57;75.72;100808.00;4953371;29;20394;-67
2022/11/27 09:16:16;;;;;;;16.15;8.52;;;;;;;-1.61;75.45;100807.44;4920351;29;20051;-68
2022/11/27 09:18:46;;;;;;;12.73;7.45;;;;;;;-1.62;75.47;100811.00;4953323;29;20043;-68
2022/11/27 09:21:13;;;;;;;16.80;9.10;;;;;;;-1.48;75.59;100814.22;4920070;29;20098;-67
2022/11/27 09:23:39;;;;;;;11.57;7.20;;;;;;;-1.24;74.48;100817.44;4920805;29;20314;-67
2022/11/27 09:26:12;;;;;;;12.70;6.20;;;;;;;-1.28;74.58;100810.84;4957380;29;20114;-68
2022/11/27 09:28:38;;;;;;;16.50;8.45;;;;;;;-1.24;74.58;100814.81;4923932;29;20047;-66
2022/11/27 09:31:05;;;;;;;13.05;8.38;;;;;;;-1.19;74.71;100820.47;4924193;29;20047;-68
2022/11/27 09:33:33;;;;;;;13.25;7.00;;;;;;;-1.13;74.45;100807.94;4907833;29;20050;-67
2022/11/27 09:36:05;;;;;;;14.27;8.18;;;;;;;-1.03;74.40;100819.22;4939386;29;20460;-68
2022/11/27 09:38:31;;;;;;;14.45;7.88;;;;;;;-0.94;74.22;100815.88;4939462;29;20511;-68
2022/11/27 09:41:00;;;;;;;12.60;7.75;;;;;;;-0.96;74.01;100815.16;4939636;29;20047;-67
2022/11/27 09:43:29;;;;;;;21.30;11.30;;;;;;;-0.89;74.02;100807.66;4923602;29;20049;-67
2022/11/27 09:46:00;;;;;;;18.88;9.85;;;;;;;-0.92;74.05;100814.75;4939622;29;20058;-68
2022/11/27 09:48:51;;;;;;;12.55;6.72;;;;;;;-1.03;74.27;100816.59;4940023;29;20039;-67
2022/11/27 09:51:32;;;;;;;11.80;5.95;;;;;;;-1.03;74.39;100808.81;4953354;29;20059;-68
2022/11/27 09:54:22;;;;;;;12.10;7.30;;;;;;;-1.09;74.51;100809.31;4939865;29;20042;-67
2022/11/27 09:56:51;;;;;;;11.07;6.10;;;;;;;-1.23;75.20;100819.09;4923641;29;20055;-68
2022/11/27 09:59:19;;;;;;;9.57;6.35;;;;;;;-1.34;75.22;100819.16;4939199;29;20078;-67
2022/11/27 10:01:45;;;;;;;12.10;5.82;;;;;;;-1.29;75.55;100823.97;4938966;29;20499;-66
2022/11/27 10:04:16;;;;;;;17.42;6.15;;;;;;;-1.35;75.50;100827.06;4956350;29;20583;-68
2022/11/27 10:07:19;;;;;;;9.65;6.35;;;;;;;-1.24;75.76;100808.81;4923549;29;20058;-66
2022/11/27 10:10:06;;;;;;;10.90;5.57;;;;;;;-1.30;75.17;100824.91;4939280;29;20535;-67
2022/11/27 10:12:56;;;;;;;10.05;6.00;;;;;;;-1.18;74.94;100819.56;4923004;29;20043;-66
2022/11/27 10:15:22;;;;;;;;;;;;;;;-1.22;74.97;100818.13;4939656;29;20122;-66
2022/11/27 10:18:14;;;;;;;11.52;5.20;;;;;;;-1.16;75.14;100820.22;4955987;29;19957;-68
2022/11/27 10:20:45;;;;;;;10.05;5.50;;;;;;;-1.06;74.97;100819.47;4956116;29;20047;-68
2022/11/27 10:23:39;;;;;;;10.35;5.20;;;;;;;-1.10;74.82;100816.28;4921434;29;20119;-68
2022/11/27 10:26:13;;;;;;;10.02;5.88;;;;;;;-1.06;75.12;100820.31;4885492;29;20195;-67
2022/11/27 10:29:22;;;;;;;9.05;5.28;;;;;;;-1.01;74.84;100819.91;4916572;29;20048;-68
2022/11/27 10:31:51;;;;;;;11.05;5.65;;;;;;;-1.10;74.72;100821.50;4898479;29;20433;-66
2022/11/27 10:34:40;;;;;;;10.55;6.32;;;;;;;-1.15;75.14;100819.28;4885904;29;20040;-66
2022/11/27 10:37:29;;;;;;;11.38;5.78;;;;;;;-1.19;74.38;100830.88;4900186;29;20143;-68
2022/11/27 10:40:18;;;;;;;10.10;6.57;;;;;;;-1.18;75.20;100816.94;4917877;29;20044;-69
2022/11/27 10:42:57;;;;;;;10.05;6.03;;;;;;;-1.13;74.63;100826.97;4916674;29;20044;-67
2022/11/27 10:45:43;;;;;;;12.35;5.95;;;;;;;-1.19;74.35;100823.09;4916472;29;20059;-68
2022/11/27 10:48:14;;;;;;;13.25;7.70;;;;;;;-1.24;74.57;100825.22;4901124;29;20524;-66
2022/11/27 10:50:41;;;;;;;9.20;6.00;;;;;;;-1.25;74.48;100823.59;4900676;29;20088;-73
2022/11/27 10:53:09;;;;;;;13.85;6.85;;;;;;;-1.16;74.30;100814.22;4900694;29;20055;-68
2022/11/27 10:55:47;;;;;;;14.95;7.25;;;;;;;-1.10;74.35;100818.06;4918324;29;20564;-68
2022/11/27 10:58:24;;;;;;;12.05;7.47;;;;;;;-1.03;74.34;100821.81;4887403;29;20040;-68
2022/11/27 11:01:11;;;;;;;12.80;6.93;;;;;;;-1.17;74.15;100810.78;4915928;29;20044;-69
2022/11/27 11:03:39;;;;;;;13.98;6.63;;;;;;;-1.20;74.41;100823.22;4916007;29;20051;-67
2022/11/27 11:06:23;;;;;;;11.95;6.95;;;;;;;-1.30;74.32;100817.94;4917700;29;20056;-67
2022/11/27 11:09:04;;;;;;;9.75;7.05;;;;;;;-1.34;74.44;100832.16;4884712;29;20131;-67
2022/11/27 11:11:30;;;;;;;;;;;;;;;-1.37;74.64;100829.81;4900521;29;20055;-67
2022/11/27 11:13:55;;;;;;;13.35;7.50;;;;;;;-1.41;74.21;100818.81;4916101;29;19923;-68
2022/11/27 11:16:23;;;;;;;12.25;7.60;;;;;;;-1.35;74.74;100822.69;4915944;29;20048;-67
2022/11/27 11:18:52;;;;;;;17.10;8.30;;;;;;;-1.19;74.24;100817.88;4915831;29;20048;-65
2022/11/27 11:21:26;;;;;;;13.73;7.05;;;;;;;-1.22;73.89;100810.31;4900353;29;20082;-68
2022/11/27 11:23:57;;;;;;;15.07;8.02;;;;;;;-1.38;74.41;100802.16;4936397;29;20054;-69
2022/11/27 11:26:34;;;;;;;13.52;7.63;;;;;;;-1.30;73.97;100814.50;4904335;29;20051;-68
2022/11/27 11:29:05;;;;;;;14.77;8.65;;;;;;;-1.19;73.70;100823.09;4920439;29;20047;-68
2022/11/27 11:31:37;;;;;;;15.73;7.03;;;;;;;-1.32;73.83;100821.59;4938145;29;20062;-67